createdAt,value
2018-06-22T00:00:21.902Z,48.42
2018-06-22T00:01:21.794Z,47.75
2018-06-22T00:02:21.704Z,49.28
2018-06-22T00:03:21.595Z,48.23
2018-06-22T00:04:21.493Z,48.54
2018-06-22T00:05:21.408Z,49.08
2018-06-22T00:06:21.300Z,47.85
2018-06-22T00:07:21.202Z,48.32
2018-06-22T00:08:21.098Z,48.04
2018-06-22T00:09:21.001Z,47.75
2018-06-22T00:10:20.897Z,47.47
2018-06-22T00:11:20.799Z,47.28
2018-06-22T00:12:20.695Z,45.94
2018-06-22T00:13:20.606Z,45.65
2018-06-22T00:14:20.502Z,45.84
2018-06-22T00:15:20.395Z,46.32
2018-06-22T00:16:20.312Z,45.94
2018-06-22T00:17:20.203Z,45.18
2018-06-22T00:18:20.100Z,44.60
2018-06-22T00:19:19.994Z,43.75
2018-06-22T00:20:19.901Z,43.08
2018-06-22T00:21:19.800Z,41.75
2018-06-22T00:22:19.696Z,44.60
2018-06-22T00:23:19.602Z,42.22
2018-06-22T00:24:19.508Z,42.51
2018-06-22T00:25:19.398Z,42.89
2018-06-22T00:26:19.295Z,42.22
2018-06-22T00:27:19.207Z,42.63
2018-06-22T00:28:19.110Z,42.60
2018-06-22T00:29:19.005Z,42.82
2018-06-22T00:30:18.901Z,45.39
2018-06-22T00:31:18.806Z,46.34
2018-06-22T00:32:18.702Z,47.20
2018-06-22T00:33:18.603Z,46.92
2018-06-22T00:34:18.511Z,45.97
2018-06-22T00:35:18.404Z,48.07
2018-06-22T00:36:18.300Z,46.82
2018-06-22T00:37:18.195Z,47.58
2018-06-22T00:38:18.107Z,47.58
2018-06-22T00:39:18.010Z,48.35
2018-06-22T00:40:18.202Z,48.63
2018-06-22T00:41:17.803Z,47.58
2018-06-22T00:42:17.706Z,48.35
2018-06-22T00:43:17.607Z,48.16
2018-06-22T00:44:17.505Z,47.30
2018-06-22T00:45:17.411Z,46.51
2018-06-22T00:46:17.307Z,46.44
2018-06-22T00:47:17.201Z,46.70
2018-06-22T00:48:17.097Z,46.04
2018-06-22T00:49:17.023Z,44.99
2018-06-22T00:50:16.920Z,45.65
2018-06-22T00:51:16.798Z,45.47
2018-06-22T00:52:16.709Z,45.75
2018-06-22T00:53:16.608Z,45.65
2018-06-22T00:54:16.505Z,44.99
2018-06-22T00:55:16.405Z,42.89
2018-06-22T00:56:16.326Z,42.32
2018-06-22T00:57:16.205Z,41.36
2018-06-22T00:58:16.101Z,39.94
2018-06-22T00:59:16.002Z,40.22
2018-06-22T01:00:16.161Z,40.32
2018-06-22T01:01:15.811Z,39.46
2018-06-22T01:02:15.705Z,39.65
2018-06-22T01:03:15.627Z,38.89
2018-06-22T01:04:15.508Z,39.56
2018-06-22T01:05:15.408Z,39.27
2018-06-22T01:06:15.306Z,39.56
2018-06-22T01:07:15.211Z,40.03
2018-06-22T01:08:15.109Z,41.36
2018-06-22T01:09:15.004Z,39.84
2018-06-22T01:10:14.904Z,40.41
2018-06-22T01:11:14.813Z,41.46
2018-06-22T01:12:14.722Z,41.36
2018-06-22T01:13:14.604Z,40.60
2018-06-22T01:14:14.517Z,40.60
2018-06-22T01:15:14.415Z,41.65
2018-06-22T01:16:14.314Z,40.99
2018-06-22T01:17:14.206Z,41.36
2018-06-22T01:18:14.114Z,39.46
2018-06-22T01:19:14.009Z,39.46
2018-06-22T01:20:14.155Z,40.41
2018-06-22T01:21:13.813Z,39.08
2018-06-22T01:22:13.766Z,40.41
2018-06-22T01:23:13.610Z,40.03
2018-06-22T01:24:13.507Z,40.32
2018-06-22T01:25:13.417Z,40.22
2018-06-22T01:26:13.314Z,40.32
2018-06-22T01:27:13.207Z,39.46
2018-06-22T01:28:13.106Z,37.74
2018-06-22T01:29:13.015Z,37.17
2018-06-22T01:30:12.915Z,37.36
2018-06-22T01:31:12.805Z,37.93
2018-06-22T01:32:12.702Z,38.41
2018-06-22T01:33:12.601Z,37.17
2018-06-22T01:34:12.572Z,36.69
2018-06-22T01:35:12.409Z,36.79
2018-06-22T01:36:12.306Z,36.12
2018-06-22T01:37:12.200Z,36.03
2018-06-22T01:38:12.109Z,35.27
2018-06-22T01:39:12.016Z,35.55
2018-06-22T01:40:11.906Z,34.50
2018-06-22T01:41:11.812Z,33.84
2018-06-22T01:42:11.709Z,32.79
2018-06-22T01:43:11.601Z,32.40
2018-06-22T01:44:11.501Z,31.26
2018-06-22T01:45:11.414Z,31.45
2018-06-22T01:46:11.311Z,30.88
2018-06-22T01:47:11.204Z,29.93
2018-06-22T01:48:11.100Z,30.10
2018-06-22T01:49:11.006Z,29.15
2018-06-22T01:50:10.903Z,28.49
2018-06-22T01:51:10.804Z,27.81
2018-06-22T01:52:10.700Z,26.29
2018-06-22T01:53:10.607Z,27.15
2018-06-22T01:54:10.504Z,27.25
2018-06-22T01:55:10.405Z,29.15
2018-06-22T01:56:10.301Z,28.86
2018-06-22T01:57:10.212Z,28.49
2018-06-22T01:58:10.108Z,29.63
2018-06-22T01:59:10.001Z,30.10
2018-06-22T02:00:09.897Z,29.25
2018-06-22T02:01:09.798Z,29.82
2018-06-22T02:02:09.707Z,29.05
2018-06-22T02:03:09.599Z,30.77
2018-06-22T02:04:09.495Z,30.87
2018-06-22T02:05:09.424Z,31.15
2018-06-22T02:06:09.303Z,30.87
2018-06-22T02:07:09.262Z,30.10
2018-06-22T02:08:09.113Z,29.72
2018-06-22T02:09:08.994Z,31.34
2018-06-22T02:10:08.903Z,31.34
2018-06-22T02:11:08.804Z,29.93
2018-06-22T02:12:08.700Z,31.74
2018-06-22T02:13:08.595Z,31.84
2018-06-22T02:14:08.504Z,31.36
2018-06-22T02:15:08.396Z,32.79
2018-06-22T02:16:08.292Z,33.07
2018-06-22T02:17:08.195Z,32.69
2018-06-22T02:18:08.105Z,33.26
2018-06-22T02:19:07.999Z,35.93
2018-06-22T02:20:08.199Z,35.84
2018-06-22T02:21:07.789Z,35.36
2018-06-22T02:22:07.697Z,36.41
2018-06-22T02:23:07.598Z,37.55
2018-06-22T02:24:07.495Z,37.36
2018-06-22T02:25:07.389Z,37.27
2018-06-22T02:26:07.299Z,38.89
2018-06-22T02:27:07.204Z,38.32
2018-06-22T02:28:07.098Z,38.79
2018-06-22T02:29:06.991Z,38.89
2018-06-22T02:30:06.901Z,38.70
2018-06-22T02:31:06.793Z,40.03
2018-06-22T02:32:06.690Z,39.84
2018-06-22T02:33:06.593Z,42.13
2018-06-22T02:34:06.502Z,42.13
2018-06-22T02:35:06.394Z,42.03
2018-06-22T02:36:06.292Z,42.99
2018-06-22T02:37:06.189Z,43.58
2018-06-22T02:38:06.096Z,43.56
2018-06-22T02:39:05.995Z,42.41
2018-06-22T02:40:06.142Z,43.94
2018-06-22T02:41:05.793Z,42.80
2018-06-22T02:42:05.696Z,42.22
2018-06-22T02:43:05.595Z,42.32
2018-06-22T02:44:05.493Z,43.18
2018-06-22T02:45:05.403Z,42.51
2018-06-22T02:46:05.299Z,42.99
2018-06-22T02:47:05.194Z,43.84
2018-06-22T02:48:05.089Z,44.80
2018-06-22T02:49:05.003Z,43.96
2018-06-22T02:50:04.897Z,44.15
2018-06-22T02:51:04.790Z,43.77
2018-06-22T02:52:04.686Z,43.27
2018-06-22T02:53:04.596Z,43.49
2018-06-22T02:54:04.493Z,45.28
2018-06-22T02:55:04.394Z,43.87
2018-06-22T02:56:04.296Z,44.60
2018-06-22T02:57:04.197Z,44.51
2018-06-22T02:58:04.093Z,44.53
2018-06-22T02:59:03.995Z,45.75
2018-06-22T03:00:04.153Z,45.68
2018-06-22T03:01:03.798Z,46.63
2018-06-22T03:02:03.694Z,47.30
2018-06-22T03:03:03.587Z,46.04
2018-06-22T03:04:03.497Z,46.06
2018-06-22T03:05:03.399Z,45.97
2018-06-22T03:06:03.297Z,47.56
2018-06-22T03:07:03.200Z,46.13
2018-06-22T03:08:03.097Z,48.44
2018-06-22T03:09:02.992Z,48.99
2018-06-22T03:10:02.891Z,47.66
2018-06-22T03:11:02.805Z,47.30
2018-06-22T03:12:02.700Z,47.47
2018-06-22T03:13:02.592Z,48.13
2018-06-22T03:14:02.501Z,47.20
2018-06-22T03:15:02.402Z,47.66
2018-06-22T03:16:02.298Z,46.04
2018-06-22T03:17:02.199Z,45.78
2018-06-22T03:18:02.106Z,46.73
2018-06-22T03:19:01.998Z,47.66
2018-06-22T03:20:02.146Z,46.63
2018-06-22T03:21:01.806Z,49.40
2018-06-22T03:22:01.703Z,48.54
2018-06-22T03:23:01.596Z,48.23
2018-06-22T03:24:01.510Z,48.25
2018-06-22T03:25:01.405Z,48.25
2018-06-22T03:26:01.301Z,48.25
2018-06-22T03:27:01.202Z,49.30
2018-06-22T03:28:01.110Z,50.73
2018-06-22T03:29:01.031Z,49.68
2018-06-22T03:30:00.903Z,49.11
2018-06-22T03:31:00.809Z,49.21
2018-06-22T03:32:00.746Z,49.02
2018-06-22T03:33:00.601Z,47.11
2018-06-22T03:34:00.526Z,50.92
2018-06-22T03:35:00.411Z,51.68
2018-06-22T03:36:00.307Z,51.31
2018-06-22T03:37:00.203Z,50.26
2018-06-22T03:38:00.114Z,50.07
2018-06-22T03:39:00.027Z,50.73
2018-06-22T03:39:59.908Z,52.64
2018-06-22T03:40:59.815Z,51.68
2018-06-22T03:41:59.712Z,51.97
2018-06-22T03:42:59.606Z,49.97
2018-06-22T03:43:59.513Z,48.83
2018-06-22T03:44:59.414Z,51.59
2018-06-22T03:45:59.312Z,51.78
2018-06-22T03:46:59.216Z,50.35
2018-06-22T03:47:59.117Z,50.73
2018-06-22T03:48:59.011Z,50.07
2018-06-22T03:49:58.922Z,49.87
2018-06-22T03:50:58.822Z,50.73
2018-06-22T03:51:58.720Z,50.63
2018-06-22T03:52:58.610Z,50.83
2018-06-22T03:53:58.519Z,50.16
2018-06-22T03:54:58.422Z,49.87
2018-06-22T03:55:58.315Z,51.97
2018-06-22T03:56:58.232Z,52.73
2018-06-22T03:57:58.123Z,54.74
2018-06-22T03:58:58.017Z,53.97
2018-06-22T03:59:57.925Z,53.59
2018-06-22T04:00:57.825Z,53.50
2018-06-22T04:01:57.723Z,55.05
2018-06-22T04:02:57.628Z,55.05
2018-06-22T04:03:57.526Z,53.69
2018-06-22T04:04:57.420Z,56.36
2018-06-22T04:05:57.328Z,56.87
2018-06-22T04:06:57.229Z,57.50
2018-06-22T04:07:57.149Z,57.92
2018-06-22T04:08:57.093Z,55.50
2018-06-22T04:09:56.930Z,55.41
2018-06-22T04:10:56.830Z,53.59
2018-06-22T04:11:56.739Z,50.83
2018-06-22T04:12:56.634Z,53.50
2018-06-22T04:13:56.532Z,52.92
2018-06-22T04:14:56.436Z,52.16
2018-06-22T04:15:56.333Z,53.12
2018-06-22T04:16:56.234Z,54.83
2018-06-22T04:17:56.142Z,54.17
2018-06-22T04:18:56.035Z,53.31
2018-06-22T04:19:56.214Z,54.26
2018-06-22T04:20:55.847Z,55.05
2018-06-22T04:21:55.740Z,54.77
2018-06-22T04:22:55.646Z,56.48
2018-06-22T04:23:55.549Z,56.20
2018-06-22T04:24:55.441Z,54.77
2018-06-22T04:25:55.337Z,57.34
2018-06-22T04:26:55.251Z,58.01
2018-06-22T04:27:55.149Z,58.20
2018-06-22T04:28:55.047Z,59.06
2018-06-22T04:29:54.968Z,58.68
2018-06-22T04:30:54.847Z,57.63
2018-06-22T04:31:54.744Z,60.58
2018-06-22T04:32:54.655Z,59.44
2018-06-22T04:33:54.552Z,60.49
2018-06-22T04:34:54.458Z,61.54
2018-06-22T04:35:54.354Z,60.11
2018-06-22T04:36:54.252Z,60.30
2018-06-22T04:37:54.150Z,61.25
2018-06-22T04:38:54.064Z,60.49
2018-06-22T04:39:53.959Z,61.07
2018-06-22T04:40:53.865Z,60.97
2018-06-22T04:41:53.759Z,60.97
2018-06-22T04:42:53.659Z,60.39
2018-06-22T04:43:53.569Z,61.63
2018-06-22T04:44:53.469Z,60.68
2018-06-22T04:45:53.365Z,62.02
2018-06-22T04:46:53.269Z,62.68
2018-06-22T04:47:53.166Z,60.97
2018-06-22T04:48:53.068Z,61.92
2018-06-22T04:49:52.977Z,62.52
2018-06-22T04:50:52.871Z,62.62
2018-06-22T04:51:52.768Z,63.39
2018-06-22T04:52:52.672Z,62.05
2018-06-22T04:53:52.569Z,64.62
2018-06-22T04:54:52.484Z,63.64
2018-06-22T04:55:52.380Z,63.07
2018-06-22T04:56:52.279Z,61.16
2018-06-22T04:57:52.224Z,62.62
2018-06-22T04:58:52.084Z,64.53
2018-06-22T04:59:51.982Z,64.53
2018-06-22T05:00:51.889Z,64.91
2018-06-22T05:01:51.786Z,65.87
2018-06-22T05:02:51.690Z,66.35
2018-06-22T05:03:51.586Z,65.30
2018-06-22T05:04:51.487Z,65.48
2018-06-22T05:05:51.397Z,67.40
2018-06-22T05:06:51.339Z,68.16
2018-06-22T05:07:51.198Z,66.53
2018-06-22T05:08:51.097Z,67.77
2018-06-22T05:09:50.994Z,65.77
2018-06-22T05:10:50.912Z,64.78
2018-06-22T05:11:50.805Z,61.63
2018-06-22T05:12:50.706Z,62.11
2018-06-22T05:13:50.604Z,59.44
2018-06-22T05:14:50.504Z,57.82
2018-06-22T05:15:50.513Z,58.01
2018-06-22T05:16:50.312Z,60.68
2018-06-22T05:17:50.210Z,60.68
2018-06-22T05:18:50.116Z,60.30
2018-06-22T05:19:50.010Z,62.88
2018-06-22T05:20:49.927Z,64.21
2018-06-22T05:21:49.822Z,64.15
2018-06-22T05:22:49.715Z,66.63
2018-06-22T05:23:49.623Z,65.96
2018-06-22T05:24:49.555Z,67.77
2018-06-22T05:25:49.415Z,69.31
2018-06-22T05:26:49.327Z,71.31
2018-06-22T05:27:49.228Z,74.27
2018-06-22T05:28:49.131Z,73.73
2018-06-22T05:29:49.027Z,71.92
2018-06-22T05:30:48.929Z,73.44
2018-06-22T05:31:48.838Z,75.45
2018-06-22T05:32:48.733Z,76.79
2018-06-22T05:33:48.670Z,79.17
2018-06-22T05:34:48.533Z,76.88
2018-06-22T05:35:48.492Z,80.22
2018-06-22T05:36:48.340Z,80.41
2018-06-22T05:37:48.236Z,79.65
2018-06-22T05:38:48.149Z,80.61
2018-06-22T05:39:48.046Z,80.70
2018-06-22T05:40:47.958Z,80.70
2018-06-22T05:41:47.855Z,80.46
2018-06-22T05:42:47.748Z,79.98
2018-06-22T05:43:47.656Z,80.46
2018-06-22T05:44:47.555Z,80.17
2018-06-22T05:45:47.467Z,81.60
2018-06-22T05:46:47.357Z,81.32
2018-06-22T05:47:47.265Z,81.41
2018-06-22T05:48:47.166Z,82.94
2018-06-22T05:49:47.073Z,84.61
2018-06-22T05:50:46.992Z,85.47
2018-06-22T05:51:46.872Z,83.46
2018-06-22T05:52:46.777Z,85.57
2018-06-22T05:53:46.673Z,84.80
2018-06-22T05:54:46.587Z,85.09
2018-06-22T05:55:46.486Z,85.33
2018-06-22T05:56:46.437Z,84.23
2018-06-22T05:57:46.287Z,85.57
2018-06-22T05:58:46.192Z,87.86
2018-06-22T05:59:46.090Z,85.81
2018-06-22T06:00:46.004Z,84.47
2018-06-22T06:01:45.900Z,84.28
2018-06-22T06:02:45.810Z,83.42
2018-06-22T06:03:45.702Z,81.89
2018-06-22T06:04:45.608Z,79.69
2018-06-22T06:05:45.507Z,79.85
2018-06-22T06:06:45.425Z,78.99
2018-06-22T06:07:45.317Z,76.60
2018-06-22T06:08:45.222Z,76.92
2018-06-22T06:09:45.117Z,80.55
2018-06-22T06:10:45.032Z,79.60
2018-06-22T06:11:44.927Z,80.27
2018-06-22T06:12:44.841Z,80.74
2018-06-22T06:13:44.735Z,82.84
2018-06-22T06:14:44.641Z,80.93
2018-06-22T06:15:44.538Z,81.51
2018-06-22T06:16:44.448Z,81.60
2018-06-22T06:17:44.349Z,82.08
2018-06-22T06:18:44.251Z,83.04
2018-06-22T06:19:44.147Z,83.65
2018-06-22T06:20:44.062Z,84.28
2018-06-22T06:21:43.955Z,84.89
2018-06-22T06:22:43.868Z,84.61
2018-06-22T06:23:43.766Z,85.28
2018-06-22T06:24:43.669Z,83.46
2018-06-22T06:25:43.566Z,84.61
2018-06-22T06:26:43.484Z,83.27
2018-06-22T06:27:43.381Z,81.74
2018-06-22T06:28:43.283Z,81.65
2018-06-22T06:29:43.180Z,83.84
2018-06-22T06:30:43.102Z,85.38
2018-06-22T06:31:42.983Z,86.66
2018-06-22T06:32:42.897Z,87.52
2018-06-22T06:33:42.795Z,86.08
2018-06-22T06:34:42.699Z,88.19
2018-06-22T06:35:42.597Z,87.81
2018-06-22T06:36:42.506Z,86.76
2018-06-22T06:37:42.402Z,84.80
2018-06-22T06:38:42.314Z,82.51
2018-06-22T06:39:42.222Z,82.79
2018-06-22T06:40:42.117Z,82.70
2018-06-22T06:41:42.028Z,82.60
2018-06-22T06:42:41.929Z,81.74
2018-06-22T06:43:41.836Z,81.07
2018-06-22T06:44:41.736Z,81.84
2018-06-22T06:45:41.641Z,81.93
2018-06-22T06:46:41.537Z,82.03
2018-06-22T06:47:41.446Z,82.03
2018-06-22T06:48:41.368Z,81.16
2018-06-22T06:49:41.379Z,82.12
2018-06-22T06:50:41.148Z,82.51
2018-06-22T06:51:41.060Z,83.84
2018-06-22T06:52:40.950Z,86.08
2018-06-22T06:53:40.863Z,89.34
2018-06-22T06:54:40.762Z,91.35
2018-06-22T06:55:40.672Z,90.67
2018-06-22T06:56:40.566Z,91.63
2018-06-22T06:57:40.472Z,91.53
2018-06-22T06:58:40.384Z,91.39
2018-06-22T06:59:40.282Z,92.83
2018-06-22T07:00:40.193Z,92.16
2018-06-22T07:01:40.090Z,93.69
2018-06-22T07:02:40.050Z,93.26
2018-06-22T07:03:39.891Z,93.98
2018-06-22T07:04:39.803Z,92.73
2018-06-22T07:05:39.711Z,92.06
2018-06-22T07:06:39.605Z,93.26
2018-06-22T07:07:39.516Z,93.16
2018-06-22T07:08:39.414Z,92.44
2018-06-22T07:09:39.334Z,88.57
2018-06-22T07:10:39.222Z,85.41
2018-06-22T07:11:39.137Z,78.30
2018-06-22T07:12:39.037Z,79.35
2018-06-22T07:13:38.933Z,75.62
2018-06-22T07:14:38.847Z,40.82
2018-06-22T07:15:38.748Z,47.01
2018-06-22T07:16:38.650Z,47.11
2018-06-22T07:17:38.562Z,43.86
2018-06-22T07:18:38.453Z,30.77
2018-06-22T07:19:38.365Z,36.98
2018-06-22T07:20:38.263Z,43.19
2018-06-22T07:21:38.177Z,51.21
2018-06-22T07:22:38.070Z,45.96
2018-06-22T07:23:37.975Z,59.91
2018-06-22T07:24:37.870Z,56.18
2018-06-22T07:25:37.779Z,60.58
2018-06-22T07:26:37.681Z,55.80
2018-06-22T07:27:37.589Z,56.21
2018-06-22T07:28:37.486Z,63.96
2018-06-22T07:29:37.391Z,64.72
2018-06-22T07:30:37.335Z,65.30
2018-06-22T07:31:37.201Z,65.14
2018-06-22T07:32:37.101Z,77.34
2018-06-22T07:33:37.009Z,75.24
2018-06-22T07:34:36.913Z,81.21
2018-06-22T07:35:36.811Z,74.22
2018-06-22T07:36:36.723Z,82.17
2018-06-22T07:37:36.620Z,79.77
2018-06-22T07:38:36.523Z,81.40
2018-06-22T07:39:36.420Z,83.69
2018-06-22T07:40:36.332Z,85.13
2018-06-22T07:41:36.228Z,85.61
2018-06-22T07:42:36.141Z,83.60
2018-06-22T07:43:36.039Z,82.93
2018-06-22T07:44:36.046Z,79.00
2018-06-22T07:45:35.852Z,79.49
2018-06-22T07:46:35.751Z,78.34
2018-06-22T07:47:35.661Z,79.10
2018-06-22T07:48:35.560Z,75.27
2018-06-22T07:49:35.482Z,77.38
2018-06-22T07:50:35.361Z,76.81
2018-06-22T07:51:35.271Z,76.90
2018-06-22T07:52:35.169Z,79.87
2018-06-22T07:53:35.081Z,81.21
2018-06-22T07:54:34.972Z,79.68
2018-06-22T07:55:34.880Z,82.93
2018-06-22T07:56:34.790Z,81.02
2018-06-22T07:57:34.689Z,81.97
2018-06-22T07:58:34.628Z,81.97
2018-06-22T07:59:34.498Z,87.71
2018-06-22T08:00:34.404Z,87.76
2018-06-22T08:01:34.300Z,87.52
2018-06-22T08:02:34.214Z,87.62
2018-06-22T08:03:34.110Z,88.09
2018-06-22T08:04:34.016Z,86.66
2018-06-22T08:05:33.915Z,87.52
2018-06-22T08:06:33.820Z,85.99
2018-06-22T08:07:33.727Z,87.52
2018-06-22T08:08:33.630Z,86.76
2018-06-22T08:09:33.540Z,87.71
2018-06-22T08:10:33.433Z,87.62
2018-06-22T08:11:33.342Z,88.00
2018-06-22T08:12:33.236Z,87.62
2018-06-22T08:13:33.145Z,89.72
2018-06-22T08:14:33.046Z,87.66
2018-06-22T08:15:32.969Z,91.77
2018-06-22T08:16:32.860Z,93.69
2018-06-22T08:17:32.781Z,93.21
2018-06-22T08:18:32.670Z,92.83
2018-06-22T08:19:32.567Z,91.87
2018-06-22T08:20:32.479Z,91.39
2018-06-22T08:21:32.375Z,93.50
2018-06-22T08:22:32.280Z,93.30
2018-06-22T08:23:32.227Z,92.83
2018-06-22T08:24:32.088Z,93.07
2018-06-22T08:25:32.007Z,93.16
2018-06-22T08:26:31.889Z,93.50
2018-06-22T08:27:31.800Z,94.07
2018-06-22T08:28:31.697Z,92.83
2018-06-22T08:29:31.606Z,93.12
2018-06-22T08:30:31.508Z,92.97
2018-06-22T08:31:31.423Z,92.30
2018-06-22T08:32:31.321Z,93.26
2018-06-22T08:33:31.218Z,92.97
2018-06-22T08:34:31.132Z,92.69
2018-06-22T08:35:31.029Z,92.73
2018-06-22T08:36:30.935Z,93.50
2018-06-22T08:37:30.833Z,93.88
2018-06-22T08:38:30.740Z,93.50
2018-06-22T08:39:30.895Z,93.54
2018-06-22T08:40:30.550Z,94.21
2018-06-22T08:41:30.526Z,94.12
2018-06-22T08:42:30.353Z,93.64
2018-06-22T08:43:30.260Z,92.97
2018-06-22T08:44:30.168Z,93.74
2018-06-22T08:45:30.064Z,93.88
2018-06-22T08:46:29.977Z,93.98
2018-06-22T08:47:29.874Z,93.98
2018-06-22T08:48:29.782Z,93.21
2018-06-22T08:49:29.690Z,93.64
2018-06-22T08:50:29.591Z,93.64
2018-06-22T08:51:29.501Z,93.64
2018-06-22T08:52:29.395Z,94.07
2018-06-22T08:53:29.305Z,92.92
2018-06-22T08:54:29.210Z,93.02
2018-06-22T08:55:29.106Z,93.59
2018-06-22T08:56:29.022Z,92.63
2018-06-22T08:57:28.920Z,94.21
2018-06-22T08:58:28.827Z,94.64
2018-06-22T08:59:28.732Z,94.35
2018-06-22T09:00:28.626Z,93.63
2018-06-22T09:01:28.538Z,92.01
2018-06-22T09:02:28.450Z,90.61
2018-06-22T09:03:28.347Z,88.45
2018-06-22T09:04:28.251Z,82.98
2018-06-22T09:05:28.160Z,83.75
2018-06-22T09:06:28.063Z,83.80
2018-06-22T09:07:27.972Z,78.78
2018-06-22T09:08:27.881Z,71.71
2018-06-22T09:09:27.778Z,65.20
2018-06-22T09:10:27.684Z,64.92
2018-06-22T09:11:27.593Z,64.79
2018-06-22T09:12:27.524Z,65.01
2018-06-22T09:13:27.402Z,64.43
2018-06-22T09:14:27.362Z,63.31
2018-06-22T09:15:27.216Z,61.29
2018-06-22T09:16:27.127Z,58.44
2018-06-22T09:17:27.036Z,56.57
2018-06-22T09:18:26.950Z,55.89
2018-06-22T09:19:26.860Z,56.41
2018-06-22T09:20:26.762Z,59.56
2018-06-22T09:21:26.661Z,65.17
2018-06-22T09:22:26.574Z,78.70
2018-06-22T09:23:26.482Z,89.65
2018-06-22T09:24:26.389Z,93.78
2018-06-22T09:25:26.338Z,88.90
2018-06-22T09:26:26.203Z,84.08
2018-06-22T09:27:26.113Z,81.65
2018-06-22T09:28:26.029Z,79.79
2018-06-22T09:29:25.936Z,43.19
2018-06-22T09:30:25.843Z,41.18
2018-06-22T09:31:25.807Z,32.29
2018-06-22T09:32:25.658Z,32.86
2018-06-22T09:33:25.557Z,21.68
2018-06-22T09:34:25.468Z,14.70
2018-06-22T09:35:25.378Z,13.28
2018-06-22T09:36:25.285Z,10.31
2018-06-22T09:37:25.193Z,15.66
2018-06-22T09:38:25.094Z,6.97
2018-06-22T09:39:25.001Z,5.44
2018-06-22T09:40:24.914Z,0.09
2018-06-22T09:41:24.810Z,0.00
2018-06-22T09:42:24.716Z,0.00
2018-06-22T09:43:24.624Z,0.00
2018-06-22T09:44:24.531Z,0.00
2018-06-22T09:45:24.431Z,0.00
2018-06-22T09:46:24.325Z,0.00
2018-06-22T09:47:24.239Z,0.00
2018-06-22T09:48:24.203Z,0.00
2018-06-22T09:49:24.041Z,0.00
2018-06-22T09:50:23.955Z,0.00
2018-06-22T09:51:23.853Z,0.00
2018-06-22T09:52:23.761Z,0.00
2018-06-22T09:53:23.657Z,0.00
2018-06-22T09:54:23.563Z,0.00
2018-06-22T09:55:23.460Z,0.00
2018-06-22T09:56:23.366Z,0.00
2018-06-22T09:57:23.263Z,0.00
2018-06-22T09:58:23.176Z,0.00
2018-06-22T09:59:23.075Z,0.00
2018-06-22T10:00:22.982Z,0.00
2018-06-22T10:01:22.877Z,0.00
2018-06-22T10:02:22.790Z,0.00
2018-06-22T10:03:22.688Z,3.15
2018-06-22T10:04:22.599Z,0.00
2018-06-22T10:05:22.503Z,9.17
2018-06-22T10:06:22.396Z,10.03
2018-06-22T10:07:22.293Z,18.66
2018-06-22T10:08:22.252Z,43.70
2018-06-22T10:09:22.104Z,45.76
2018-06-22T10:10:22.008Z,65.88
2018-06-22T10:11:21.960Z,71.77
2018-06-22T10:12:21.815Z,87.09
2018-06-22T10:13:21.728Z,91.47
2018-06-22T10:14:21.631Z,93.91
2018-06-22T10:15:21.534Z,80.75
2018-06-22T10:16:21.437Z,90.75
2018-06-22T10:17:21.348Z,92.71
2018-06-22T10:18:21.263Z,85.95
2018-06-22T10:19:21.168Z,85.67
2018-06-22T10:20:21.081Z,72.91
2018-06-22T10:21:20.990Z,83.03
2018-06-22T10:22:20.895Z,78.00
2018-06-22T10:23:20.803Z,89.79
2018-06-22T10:24:20.717Z,83.75
2018-06-22T10:25:20.626Z,84.71
2018-06-22T10:26:20.531Z,78.82
2018-06-22T10:27:20.439Z,87.93
2018-06-22T10:28:20.337Z,78.44
2018-06-22T10:29:20.245Z,91.62
2018-06-22T10:30:20.160Z,79.63
2018-06-22T10:31:20.067Z,79.34
2018-06-22T10:32:19.974Z,87.88
2018-06-22T10:33:19.885Z,87.98
2018-06-22T10:34:19.800Z,89.75
2018-06-22T10:35:19.706Z,95.60
2018-06-22T10:36:19.612Z,95.31
2018-06-22T10:37:19.522Z,94.30
2018-06-22T10:38:19.427Z,94.40
2018-06-22T10:39:19.406Z,95.21
2018-06-22T10:40:19.249Z,92.13
2018-06-22T10:41:19.160Z,88.81
2018-06-22T10:42:19.064Z,88.76
2018-06-22T10:43:18.974Z,91.84
2018-06-22T10:44:18.884Z,93.57
2018-06-22T10:45:18.794Z,91.88
2018-06-22T10:46:18.706Z,89.62
2018-06-22T10:47:18.617Z,76.45
2018-06-22T10:48:18.533Z,79.06
2018-06-22T10:49:18.441Z,88.13
2018-06-22T10:50:18.354Z,89.43
2018-06-22T10:51:18.266Z,91.13
2018-06-22T10:52:18.186Z,89.04
2018-06-22T10:53:18.085Z,67.88
2018-06-22T10:54:18.001Z,70.45
2018-06-22T10:55:17.911Z,65.59
2018-06-22T10:56:17.822Z,62.18
2018-06-22T10:57:17.731Z,60.99
2018-06-22T10:58:17.642Z,60.89
2018-06-22T10:59:17.557Z,67.07
2018-06-22T11:00:17.469Z,76.03
2018-06-22T11:01:17.378Z,74.99
2018-06-22T11:02:17.307Z,67.61
2018-06-22T11:03:17.214Z,73.30
2018-06-22T11:04:17.116Z,68.52
2018-06-22T11:05:17.026Z,61.22
2018-06-22T11:06:16.953Z,59.48
2018-06-22T11:07:16.860Z,68.29
2018-06-22T11:08:16.773Z,68.51
2018-06-22T11:09:16.693Z,77.61
2018-06-22T11:10:16.612Z,85.65
2018-06-22T11:11:16.508Z,88.25
2018-06-22T11:12:16.421Z,85.96
2018-06-22T11:13:16.342Z,55.46
2018-06-22T11:14:16.249Z,16.83
2018-06-22T11:15:16.157Z,0.00
2018-06-22T11:16:16.066Z,0.00
2018-06-22T11:17:15.976Z,0.00
2018-06-22T11:18:15.893Z,0.00
2018-06-22T11:19:15.795Z,0.00
2018-06-22T11:20:15.703Z,0.00
2018-06-22T11:21:15.656Z,0.00
2018-06-22T11:22:15.513Z,0.00
2018-06-22T11:23:15.422Z,0.00
2018-06-22T11:24:15.330Z,0.00
2018-06-22T11:25:15.227Z,0.00
2018-06-22T11:26:15.131Z,0.00
2018-06-22T11:27:15.040Z,0.00
2018-06-22T11:28:14.940Z,0.00
2018-06-22T11:29:14.853Z,0.00
2018-06-22T11:30:14.743Z,0.00
2018-06-22T11:31:14.651Z,0.00
2018-06-22T11:32:14.562Z,0.00
2018-06-22T11:33:14.459Z,0.00
2018-06-22T11:34:14.361Z,0.00
2018-06-22T11:35:14.271Z,0.00
2018-06-22T11:36:14.164Z,0.00
2018-06-22T11:37:14.070Z,0.00
2018-06-22T11:38:13.973Z,0.00
2018-06-22T11:39:14.132Z,0.00
2018-06-22T11:40:13.778Z,0.00
2018-06-22T11:41:13.688Z,0.00
2018-06-22T11:42:13.580Z,0.00
2018-06-22T11:43:13.477Z,0.00
2018-06-22T11:44:13.389Z,0.00
2018-06-22T11:45:13.286Z,0.00
2018-06-22T11:46:13.196Z,0.00
2018-06-22T11:47:13.093Z,0.00
2018-06-22T11:48:12.995Z,0.00
2018-06-22T11:49:12.893Z,0.00
2018-06-22T11:50:12.807Z,0.00
2018-06-22T11:51:12.731Z,0.00
2018-06-22T11:52:12.609Z,0.00
2018-06-22T11:53:12.506Z,0.00
2018-06-22T11:54:12.420Z,0.00
2018-06-22T11:55:12.317Z,0.00
2018-06-22T11:56:12.223Z,3.84
2018-06-22T11:57:12.134Z,0.00
2018-06-22T11:58:12.026Z,0.00
2018-06-22T11:59:12.216Z,0.00
2018-06-22T12:00:11.845Z,0.00
2018-06-22T12:01:11.753Z,0.00
2018-06-22T12:02:11.653Z,0.00
2018-06-22T12:03:11.567Z,0.00
2018-06-22T12:04:11.474Z,0.00
2018-06-22T12:05:11.410Z,0.00
2018-06-22T12:06:11.276Z,3.92
2018-06-22T12:07:11.186Z,0.00
2018-06-22T12:08:11.097Z,0.00
2018-06-22T12:09:11.005Z,0.00
2018-06-22T12:10:10.898Z,5.65
2018-06-22T12:11:10.807Z,0.00
2018-06-22T12:12:10.720Z,0.00
2018-06-22T12:13:10.629Z,0.00
2018-06-22T12:14:10.540Z,0.00
2018-06-22T12:15:10.439Z,0.00
2018-06-22T12:16:10.355Z,3.73
2018-06-22T12:17:10.251Z,4.97
2018-06-22T12:18:10.165Z,0.00
2018-06-22T12:19:10.139Z,0.00
2018-06-22T12:20:09.987Z,0.00
2018-06-22T12:21:09.890Z,1.25
2018-06-22T12:22:09.795Z,6.80
2018-06-22T12:23:09.704Z,0.00
2018-06-22T12:24:09.620Z,11.97
2018-06-22T12:25:09.529Z,8.24
2018-06-22T12:26:09.435Z,26.35
2018-06-22T12:27:09.357Z,33.24
2018-06-22T12:28:09.251Z,24.33
2018-06-22T12:29:09.159Z,16.86
2018-06-22T12:30:09.087Z,53.62
2018-06-22T12:31:08.995Z,38.22
2018-06-22T12:32:08.888Z,40.02
2018-06-22T12:33:08.841Z,22.80
2018-06-22T12:34:08.697Z,13.70
2018-06-22T12:35:08.606Z,11.97
2018-06-22T12:36:08.517Z,23.10
2018-06-22T12:37:08.427Z,20.32
2018-06-22T12:38:08.332Z,29.23
2018-06-22T12:39:08.229Z,37.28
2018-06-22T12:40:08.140Z,19.84
2018-06-22T12:41:08.049Z,25.20
2018-06-22T12:42:07.954Z,30.29
2018-06-22T12:43:07.865Z,40.92
2018-06-22T12:44:07.763Z,34.20
2018-06-22T12:45:07.739Z,45.89
2018-06-22T12:46:07.584Z,36.04
2018-06-22T12:47:07.495Z,53.31
2018-06-22T12:48:07.398Z,67.02
2018-06-22T12:49:07.296Z,47.85
2018-06-22T12:50:07.209Z,61.40
2018-06-22T12:51:07.117Z,69.17
2018-06-22T12:52:07.027Z,72.72
2018-06-22T12:53:06.933Z,63.22
2018-06-22T12:54:06.840Z,55.86